createdAt,value
2019-06-18T00:04:32.407Z,14.00
2019-06-18T00:07:43.983Z,14.20
2019-06-18T00:20:43.953Z,15.40
2019-06-18T00:24:17.581Z,15.70
2019-06-18T00:28:01.640Z,15.80
2019-06-18T00:53:33.533Z,16.80
2019-06-18T00:57:00.768Z,17.20
2019-06-18T01:05:57.454Z,17.60
2019-06-18T01:22:37.493Z,17.60
2019-06-18T01:25:07.228Z,18.30
2019-06-18T01:34:05.470Z,18.50
2019-06-18T01:41:02.505Z,18.80
2019-06-18T01:43:28.722Z,19.20
2019-06-18T01:56:54.802Z,19.20
2019-06-18T02:43:13.555Z,21.00
2019-06-18T02:47:08.494Z,21.60
2019-06-18T02:50:17.888Z,21.50
2019-06-18T02:52:55.725Z,21.60
2019-06-18T03:19:23.676Z,21.20
2019-06-18T03:21:55.584Z,20.70
2019-06-18T03:26:53.773Z,16.00
2019-06-18T03:40:46.474Z,14.40
2019-06-18T03:43:37.305Z,13.70
2019-06-18T03:46:28.784Z,15.00
2019-06-18T04:02:12.895Z,14.20
2019-06-18T04:07:18.099Z,13.10
2019-06-18T04:09:52.837Z,14.90
2019-06-18T04:12:23.465Z,14.20
2019-06-18T04:18:02.157Z,14.10
2019-06-18T04:20:29.459Z,13.60
2019-06-18T04:23:02.594Z,15.80
2019-06-18T04:25:53.298Z,14.80
2019-06-18T04:28:24.210Z,14.30
2019-06-18T04:30:53.877Z,14.60
2019-06-18T04:35:52.723Z,13.60
2019-06-18T04:38:32.675Z,13.20
2019-06-18T04:41:03.702Z,13.10
2019-06-18T04:43:34.587Z,14.80
2019-06-18T04:46:08.900Z,14.20
2019-06-18T04:49:03.441Z,14.00
2019-06-18T04:51:34.347Z,13.90
2019-06-18T04:54:13.530Z,13.00
2019-06-18T04:56:53.795Z,14.30
2019-06-18T04:59:23.973Z,12.40
2019-06-18T05:01:55.662Z,13.70
2019-06-18T05:04:27.658Z,13.80
2019-06-18T05:07:07.993Z,14.00
2019-06-18T05:09:37.792Z,13.80
2019-06-18T05:12:12.567Z,14.70
2019-06-18T05:14:48.345Z,13.40
2019-06-18T05:17:18.065Z,13.40
2019-06-18T05:19:49.121Z,12.20
2019-06-18T05:22:23.399Z,13.20
2019-06-18T05:24:53.386Z,13.90
2019-06-18T05:27:26.085Z,12.20
2019-06-18T05:29:57.692Z,12.20
2019-06-18T05:32:27.468Z,12.10
2019-06-18T05:35:18.302Z,11.50
2019-06-18T05:37:48.386Z,11.60
2019-06-18T05:40:18.399Z,11.80
2019-06-18T05:42:52.833Z,12.80
2019-06-18T05:45:22.916Z,13.40
2019-06-18T05:47:56.522Z,12.20
2019-06-18T05:50:26.274Z,11.60
2019-06-18T05:52:57.293Z,10.70
2019-06-18T05:55:26.910Z,11.10
2019-06-18T05:57:56.637Z,9.50
2019-06-18T06:00:27.745Z,9.50
2019-06-18T06:02:57.460Z,10.00
2019-06-18T06:05:27.710Z,10.80
2019-06-18T06:07:57.540Z,10.10
2019-06-18T06:10:29.381Z,8.80
2019-06-18T06:12:59.123Z,7.20
2019-06-18T06:15:28.791Z,6.10
2019-06-18T06:17:58.622Z,6.90
2019-06-18T06:20:32.962Z,6.00
2019-06-18T06:23:03.427Z,4.60
2019-06-18T06:25:34.661Z,2.00
2019-06-18T06:28:04.825Z,1.00
2019-06-18T06:30:34.592Z,1.00
2019-06-18T06:33:04.340Z,1.70
2019-06-18T06:35:35.820Z,3.40
2019-06-18T06:38:05.608Z,3.40
2019-06-18T06:40:35.240Z,2.20
2019-06-18T06:43:06.018Z,3.30
2019-06-18T06:45:35.766Z,2.30
2019-06-18T06:48:05.528Z,1.90
2019-06-18T06:50:35.242Z,1.50
2019-06-18T06:53:04.907Z,1.60
2019-06-18T06:55:34.626Z,2.60
2019-06-18T06:58:21.453Z,1.80
2019-06-18T07:00:35.645Z,2.80
2019-06-18T07:03:05.396Z,3.10
2019-06-18T07:05:35.054Z,1.30
2019-06-18T07:08:04.829Z,2.10
2019-06-18T07:10:34.442Z,2.60
2019-06-18T07:13:04.154Z,2.00
2019-06-18T07:15:34.451Z,1.30
2019-06-18T07:18:04.379Z,1.00
2019-06-18T07:20:34.011Z,1.00
2019-06-18T07:23:03.848Z,1.00
2019-06-18T07:25:33.842Z,1.00
2019-06-18T07:28:03.555Z,1.00
2019-06-18T07:30:33.348Z,1.00
2019-06-18T07:33:03.376Z,1.00
2019-06-18T07:35:33.871Z,1.00
2019-06-18T07:38:03.660Z,1.00
2019-06-18T07:40:33.343Z,1.00
2019-06-18T07:43:03.194Z,1.00
2019-06-18T07:45:34.399Z,1.00
2019-06-18T07:48:04.401Z,1.10
2019-06-18T07:50:34.122Z,1.20
2019-06-18T07:53:03.765Z,1.80
2019-06-18T07:55:33.610Z,1.00
2019-06-18T07:58:03.595Z,1.00
2019-06-18T08:00:33.883Z,1.00
2019-06-18T08:03:03.843Z,1.00
2019-06-18T08:05:33.571Z,1.00
2019-06-18T08:08:03.252Z,1.00
2019-06-18T08:10:32.869Z,1.00
2019-06-18T08:13:02.810Z,1.00
2019-06-18T08:15:33.243Z,1.00
2019-06-18T08:18:03.282Z,1.00
2019-06-18T08:20:38.411Z,1.00
2019-06-18T08:23:04.496Z,1.00
2019-06-18T08:25:34.108Z,1.00
2019-06-18T08:28:03.872Z,1.00
2019-06-18T08:30:39.525Z,1.00
2019-06-18T08:33:09.473Z,1.00
2019-06-18T08:35:39.663Z,1.00
2019-06-18T08:38:12.813Z,1.00
2019-06-18T08:40:42.962Z,1.00
2019-06-18T08:43:13.042Z,1.00
2019-06-18T08:45:43.113Z,1.00
2019-06-18T08:48:33.479Z,1.00
2019-06-18T08:51:12.993Z,1.00
2019-06-18T08:53:37.744Z,1.00
2019-06-18T08:56:11.233Z,1.00
2019-06-18T08:58:38.568Z,1.00
2019-06-18T09:01:08.166Z,1.00
2019-06-18T09:03:37.826Z,1.00
2019-06-18T09:06:07.486Z,1.00
2019-06-18T09:08:37.196Z,1.00
2019-06-18T09:11:06.928Z,1.00
2019-06-18T09:13:36.570Z,1.00
2019-06-18T09:16:06.329Z,1.00
2019-06-18T09:18:35.992Z,1.00
2019-06-18T09:21:08.368Z,1.00
2019-06-18T09:23:37.075Z,1.00
2019-06-18T09:26:06.825Z,1.00
2019-06-18T09:28:36.451Z,1.00
2019-06-18T09:31:06.154Z,1.00
2019-06-18T09:33:35.799Z,1.00
2019-06-18T09:36:05.533Z,1.00
2019-06-18T09:38:35.279Z,1.00
2019-06-18T09:41:05.006Z,1.00
2019-06-18T09:43:34.598Z,1.00
2019-06-18T09:46:04.297Z,1.00
2019-06-18T09:48:33.991Z,1.00
2019-06-18T09:51:19.573Z,1.00
2019-06-18T09:53:36.267Z,1.00
2019-06-18T09:56:06.992Z,1.00
2019-06-18T09:58:36.642Z,1.00
2019-06-18T10:01:06.440Z,1.00
2019-06-18T10:03:36.141Z,1.00
2019-06-18T10:06:05.904Z,1.00
2019-06-18T10:08:42.566Z,1.00
2019-06-18T10:11:12.133Z,1.00
2019-06-18T10:13:43.753Z,1.00
2019-06-18T10:16:13.669Z,1.00
2019-06-18T10:18:43.420Z,1.00
2019-06-18T10:21:13.578Z,1.00
2019-06-18T10:23:43.341Z,1.00
2019-06-18T10:26:15.289Z,1.00
2019-06-18T10:28:58.867Z,1.00
2019-06-18T10:31:18.048Z,1.00
2019-06-18T10:33:53.517Z,1.00
2019-06-18T10:36:23.128Z,1.00
2019-06-18T10:38:53.426Z,1.00
2019-06-18T10:41:29.793Z,1.00
2019-06-18T10:44:06.376Z,1.00
2019-06-18T10:46:36.409Z,1.00
2019-06-18T10:49:35.717Z,1.00
2019-06-18T10:52:05.468Z,1.00
2019-06-18T10:54:35.257Z,1.00
2019-06-18T10:57:06.250Z,1.00
2019-06-18T10:59:35.946Z,1.00
2019-06-18T11:02:19.767Z,1.00
2019-06-18T11:04:56.698Z,1.00
2019-06-18T11:07:30.157Z,1.00
2019-06-18T11:10:03.344Z,1.00
2019-06-18T11:12:34.104Z,1.00
2019-06-18T11:15:03.827Z,1.00
2019-06-18T11:17:33.555Z,1.00
2019-06-18T11:20:13.131Z,1.00
2019-06-18T11:22:43.372Z,1.00
2019-06-18T11:25:17.042Z,1.00
2019-06-18T11:27:45.478Z,1.00
2019-06-18T11:30:15.401Z,1.00
2019-06-18T11:32:45.286Z,1.00
2019-06-18T11:35:16.641Z,1.00
2019-06-18T11:37:46.295Z,1.00
2019-06-18T11:40:16.225Z,1.00
2019-06-18T11:42:48.096Z,1.00
2019-06-18T11:45:22.491Z,1.00
2019-06-18T11:47:58.058Z,1.00
2019-06-18T11:50:27.985Z,1.00
2019-06-18T11:52:57.648Z,1.00
2019-06-18T11:55:27.435Z,1.00
2019-06-18T11:57:57.112Z,1.00
2019-06-18T12:00:26.824Z,1.00
2019-06-18T12:02:56.687Z,1.00
2019-06-18T12:05:26.547Z,1.00
2019-06-18T12:12:57.039Z,1.00
2019-06-18T12:15:27.060Z,1.00
2019-06-18T12:17:57.592Z,1.00
2019-06-18T12:20:34.858Z,1.00
2019-06-18T12:23:20.246Z,1.00
2019-06-18T12:25:53.312Z,1.00
2019-06-18T12:28:25.685Z,1.00
2019-06-18T12:31:02.799Z,1.00
2019-06-18T12:33:37.294Z,1.00
2019-06-18T12:36:05.401Z,1.00
2019-06-18T12:38:35.554Z,1.00
2019-06-18T12:41:05.484Z,1.00
2019-06-18T12:43:35.239Z,1.00
2019-06-18T12:46:04.979Z,1.00
2019-06-18T12:48:34.843Z,1.00
2019-06-18T12:51:07.020Z,1.00
2019-06-18T12:53:38.721Z,1.00
2019-06-18T12:56:08.693Z,1.00
2019-06-18T12:58:42.866Z,1.00
2019-06-18T13:01:18.758Z,1.00
2019-06-18T13:06:24.417Z,1.00
2019-06-18T13:08:54.554Z,1.00
2019-06-18T13:11:24.267Z,1.00
2019-06-18T13:16:26.696Z,3.20
2019-06-18T13:19:03.498Z,1.00
2019-06-18T13:21:33.522Z,1.00
2019-06-18T13:24:03.359Z,1.00
2019-06-18T13:26:33.092Z,1.00
2019-06-18T13:29:05.349Z,1.00
2019-06-18T13:31:43.444Z,1.00
2019-06-18T13:34:13.474Z,1.00
2019-06-18T13:36:46.199Z,1.00
2019-06-18T13:42:22.294Z,1.00
2019-06-18T13:44:59.404Z,1.00
2019-06-18T13:47:54.960Z,1.00
2019-06-18T13:50:24.698Z,1.00
2019-06-18T13:53:14.334Z,1.00
2019-06-18T13:55:43.344Z,1.00
2019-06-18T13:58:13.662Z,1.00
2019-06-18T14:00:43.429Z,1.00
2019-06-18T14:03:16.770Z,1.00
2019-06-18T14:05:44.372Z,1.00
2019-06-18T14:08:15.969Z,1.00
2019-06-18T14:10:59.388Z,1.00
2019-06-18T14:13:29.517Z,1.00
2019-06-18T14:16:23.101Z,1.00
2019-06-18T14:18:54.213Z,1.00
2019-06-18T14:21:54.906Z,1.00
2019-06-18T14:24:51.112Z,1.00
2019-06-18T14:27:53.788Z,1.00
2019-06-18T14:30:36.647Z,1.00
2019-06-18T14:33:06.621Z,1.00
2019-06-18T14:38:12.724Z,1.00
2019-06-18T14:40:42.963Z,1.00
2019-06-18T14:43:23.353Z,1.00
2019-06-18T14:45:55.058Z,1.00
2019-06-18T14:48:34.371Z,1.00
2019-06-18T14:51:32.669Z,1.00
2019-06-18T14:54:23.120Z,1.00
2019-06-18T14:56:45.201Z,1.00
2019-06-18T15:02:03.994Z,1.00
2019-06-18T15:04:37.643Z,1.00
2019-06-18T15:07:12.676Z,1.00
2019-06-18T15:09:57.641Z,1.00
2019-06-18T15:12:33.482Z,1.00
2019-06-18T15:15:04.736Z,1.00
2019-06-18T15:17:57.564Z,1.00
2019-06-18T15:25:43.989Z,1.00
2019-06-18T15:28:16.260Z,1.00
2019-06-18T15:30:48.427Z,1.00
2019-06-18T15:33:18.028Z,1.00
2019-06-18T15:38:22.950Z,1.00
2019-06-18T15:40:57.616Z,1.00
2019-06-18T15:43:33.335Z,1.00
2019-06-18T15:46:03.682Z,1.00
2019-06-18T15:48:35.608Z,1.00
2019-06-18T15:51:05.955Z,1.00
2019-06-18T15:53:39.926Z,1.00
2019-06-18T15:56:09.600Z,1.00
2019-06-18T15:58:47.657Z,1.00
2019-06-18T16:01:46.734Z,1.00
2019-06-18T16:04:16.445Z,1.00
2019-06-18T16:06:46.803Z,1.00
2019-06-18T16:09:18.953Z,1.00
2019-06-18T16:11:48.628Z,1.00
2019-06-18T16:14:18.370Z,1.00
2019-06-18T16:16:47.988Z,1.00
2019-06-18T16:19:20.679Z,1.00
2019-06-18T16:21:50.994Z,1.00
2019-06-18T16:24:22.398Z,1.00
2019-06-18T16:27:04.329Z,1.00
2019-06-18T16:29:34.060Z,1.00
2019-06-18T16:32:04.112Z,1.00
2019-06-18T16:37:42.539Z,1.00
2019-06-18T16:40:23.119Z,1.00
2019-06-18T16:42:54.275Z,1.00
2019-06-18T16:45:24.942Z,1.00
2019-06-18T16:47:54.630Z,1.00
2019-06-18T16:50:26.320Z,1.00
2019-06-18T16:52:56.038Z,1.00
2019-06-18T16:55:33.607Z,1.00
2019-06-18T16:57:57.063Z,1.00
2019-06-18T17:00:40.302Z,1.00
2019-06-18T17:03:09.728Z,1.00
2019-06-18T17:05:43.194Z,1.00
2019-06-18T17:08:16.080Z,1.00
2019-06-18T17:10:47.079Z,1.00
2019-06-18T17:13:27.254Z,1.00
2019-06-18T17:15:57.153Z,1.00
2019-06-18T17:18:26.799Z,1.00
2019-06-18T17:20:56.723Z,1.00
2019-06-18T17:23:26.849Z,1.00
2019-06-18T17:25:56.571Z,1.00
2019-06-18T17:28:26.217Z,1.00
2019-06-18T17:30:55.940Z,1.00
2019-06-18T17:33:25.772Z,1.00
2019-06-18T17:35:55.581Z,1.00
2019-06-18T17:38:35.479Z,1.00
2019-06-18T17:41:05.339Z,1.00
2019-06-18T17:43:48.594Z,1.20
2019-06-18T17:46:06.804Z,1.10
2019-06-18T17:48:40.220Z,1.30
2019-06-18T17:51:13.123Z,1.60
2019-06-18T17:54:03.654Z,1.70
2019-06-18T17:56:42.880Z,1.70
2019-06-18T17:59:15.530Z,1.90
2019-06-18T18:01:54.455Z,1.90
2019-06-18T18:04:33.885Z,2.70
2019-06-18T18:07:03.911Z,2.00
2019-06-18T18:09:38.318Z,1.80
2019-06-18T18:12:12.585Z,2.20
2019-06-18T18:14:45.439Z,2.60
2019-06-18T18:17:19.607Z,2.70
2019-06-18T18:19:48.251Z,2.80
2019-06-18T18:22:25.313Z,2.70
2019-06-18T18:24:55.687Z,2.80
2019-06-18T18:27:26.394Z,3.20
2019-06-18T18:29:56.156Z,3.90
2019-06-18T18:32:32.547Z,3.60
2019-06-18T18:35:12.265Z,3.60
2019-06-18T18:37:58.140Z,3.80
2019-06-18T18:40:32.644Z,3.80
2019-06-18T18:43:03.877Z,4.10
2019-06-18T18:45:42.427Z,4.10
2019-06-18T18:48:32.897Z,4.20
2019-06-18T18:51:13.044Z,4.20
2019-06-18T18:53:45.911Z,4.30
2019-06-18T18:56:34.373Z,4.90
2019-06-18T18:59:05.273Z,5.00
2019-06-18T19:02:04.276Z,5.00
2019-06-18T19:04:34.097Z,5.50
2019-06-18T19:07:04.123Z,6.40
2019-06-18T19:09:33.781Z,5.80
2019-06-18T19:12:07.153Z,6.10
2019-06-18T19:14:36.783Z,6.10
2019-06-18T19:17:06.949Z,5.90
2019-06-18T19:19:43.334Z,6.20
2019-06-18T19:22:15.374Z,6.20
2019-06-18T19:24:45.096Z,6.00
2019-06-18T19:27:37.637Z,6.40
2019-06-18T19:30:18.399Z,5.90
2019-06-18T19:32:49.584Z,6.20
2019-06-18T19:35:20.271Z,6.60
2019-06-18T19:37:54.186Z,6.80
2019-06-18T19:40:28.427Z,7.00
2019-06-18T19:43:02.699Z,6.80
2019-06-18T19:45:32.668Z,7.00
2019-06-18T19:48:04.544Z,6.90
2019-06-18T19:50:37.126Z,7.00
2019-06-18T19:53:07.017Z,6.90
2019-06-18T19:55:42.647Z,6.80
2019-06-18T19:58:12.975Z,7.10
2019-06-18T20:00:43.415Z,7.30
2019-06-18T20:03:18.259Z,6.90
2019-06-18T20:05:52.814Z,7.00
2019-06-18T20:08:24.638Z,7.60
2019-06-18T20:11:03.130Z,7.40
2019-06-18T20:13:33.731Z,7.60
2019-06-18T20:16:04.082Z,7.50
2019-06-18T20:18:33.747Z,7.80
2019-06-18T20:21:12.667Z,15.10
2019-06-18T20:23:37.796Z,15.00
2019-06-18T20:26:17.736Z,15.10
2019-06-18T20:28:47.580Z,15.20
2019-06-18T20:31:17.288Z,15.00
2019-06-18T20:33:47.345Z,15.50
2019-06-18T20:36:18.744Z,24.00
2019-06-18T20:38:53.138Z,14.00
2019-06-18T20:41:23.172Z,13.80
2019-06-18T20:43:53.750Z,14.10
2019-06-18T20:46:24.525Z,14.20
2019-06-18T20:48:54.220Z,14.20
2019-06-18T20:51:25.023Z,9.80
2019-06-18T20:53:54.839Z,10.20
2019-06-18T20:56:30.014Z,10.40
2019-06-18T20:58:59.688Z,10.70
2019-06-18T21:01:29.474Z,11.20
2019-06-18T21:04:02.598Z,11.10
2019-06-18T21:06:36.452Z,11.10
2019-06-18T21:09:13.181Z,11.60
2019-06-18T21:11:45.550Z,11.70
2019-06-18T21:14:23.898Z,12.10
2019-06-18T21:17:05.847Z,12.20
2019-06-18T21:19:46.824Z,12.40
2019-06-18T21:22:24.083Z,12.80
2019-06-18T21:24:53.897Z,12.70
2019-06-18T21:29:55.229Z,13.10
2019-06-18T21:32:33.741Z,13.50
2019-06-18T21:35:03.416Z,13.50
2019-06-18T21:37:34.040Z,13.50
2019-06-18T21:40:04.731Z,13.80
2019-06-18T21:42:36.672Z,13.70
2019-06-18T21:45:13.463Z,14.00
2019-06-18T21:47:49.115Z,14.20
